Time;durP1;ratioP1;P1;durP2;ratioP2;P2;SDS_P1;SDS_P2;PMS_P1;PMS_P2;Temp;Humidity;BMP_temperature;BMP_pressure;BME280_temperature;BME280_humidity;BME280_pressure;Samples;Min_cycle;Max_cycle;Signal;HPM_P1;HPM_P2
2023/05/22 00:00:55;;;;;;;1.33;1.23;;;14.70;99.90;;;;;;5017025;28;20473;-68
2023/05/22 00:03:23;;;;;;;1.57;1.47;;;14.70;99.90;;;;;;5017347;28;20171;-69
2023/05/22 00:05:49;;;;;;;1.10;1.10;;;14.60;99.90;;;;;;5017252;28;20183;-69
2023/05/22 00:08:14;;;;;;;2.73;1.80;;;14.60;99.90;;;;;;5017354;28;20408;-69
2023/05/22 00:10:40;;;;;;;5.30;2.70;;;14.60;99.90;;;;;;5017231;28;20410;-69
2023/05/22 00:13:06;;;;;;;2.17;2.07;;;14.70;99.90;;;;;;5017060;28;20254;-69
2023/05/22 00:15:32;;;;;;;1.60;1.50;;;14.70;99.90;;;;;;5016965;28;20413;-69
2023/05/22 00:17:58;;;;;;;1.13;1.03;;;14.70;99.90;;;;;;5017255;28;20179;-69
2023/05/22 00:20:25;;;;;;;2.77;2.57;;;14.70;99.90;;;;;;5017231;28;20825;-69
2023/05/22 00:22:50;;;;;;;1.67;1.43;;;14.70;99.90;;;;;;5016889;28;20522;-69
2023/05/22 00:25:18;;;;;;;2.47;1.67;;;14.80;99.90;;;;;;5016959;28;20490;-69
2023/05/22 00:27:44;;;;;;;1.33;1.23;;;14.80;99.90;;;;;;5016813;28;20413;-69
2023/05/22 00:30:10;;;;;;;54.33;2.77;;;14.80;99.90;;;;;;5016984;28;20552;-69
2023/05/22 00:32:36;;;;;;;2.50;2.40;;;14.80;99.90;;;;;;5016971;28;20196;-69
2023/05/22 00:35:02;;;;;;;2.10;1.70;;;14.90;99.90;;;;;;5016791;28;20406;-69
2023/05/22 00:37:28;;;;;;;1.23;1.13;;;14.80;99.90;;;;;;5016573;28;20414;-69
2023/05/22 00:39:53;;;;;;;2.23;1.60;;;14.80;99.90;;;;;;5016710;28;20316;-69
2023/05/22 00:42:19;;;;;;;1.03;0.83;;;14.80;99.90;;;;;;5016596;28;20196;-69
2023/05/22 00:44:45;;;;;;;2.17;1.70;;;14.80;99.90;;;;;;5016795;28;20176;-68
2023/05/22 00:47:10;;;;;;;0.80;0.80;;;14.70;99.90;;;;;;5016521;28;20178;-69
2023/05/22 00:49:36;;;;;;;1.13;1.13;;;14.50;99.90;;;;;;5016637;28;20207;-68
2023/05/22 00:52:02;;;;;;;2.23;2.13;;;14.50;99.90;;;;;;5016353;28;20650;-69
2023/05/22 00:54:29;;;;;;;2.10;2.00;;;14.50;99.90;;;;;;5016450;28;20288;-69
2023/05/22 00:56:55;;;;;;;1.47;1.40;;;14.60;99.90;;;;;;5016225;28;20419;-69
2023/05/22 00:59:22;;;;;;;1.43;1.13;;;14.60;99.90;;;;;;5016358;28;20770;-69
2023/05/22 01:01:48;;;;;;;5.33;3.60;;;14.70;99.90;;;;;;5016419;28;20485;-69
2023/05/22 01:04:14;;;;;;;1.87;1.77;;;14.70;99.90;;;;;;5016169;28;20417;-69
2023/05/22 01:06:40;;;;;;;1.27;1.17;;;14.70;99.90;;;;;;5015979;28;20504;-69
2023/05/22 01:09:06;;;;;;;1.73;1.63;;;14.70;99.90;;;;;;5016088;28;20899;-69
2023/05/22 01:11:40;;;;;;;3.07;2.87;;;14.70;99.90;;;;;;5015426;28;20803;-69
2023/05/22 01:14:22;;;;;;;1.33;1.27;;;14.60;99.90;;;;;;5016015;28;20417;-69
2023/05/22 01:16:53;;;;;;;4.17;3.10;;;14.60;99.90;;;;;;5015826;28;20887;-69
2023/05/22 01:19:38;;;;;;;4.07;1.90;;;14.60;99.90;;;;;;5015893;28;20892;-69
2023/05/22 01:22:25;;;;;;;2.73;2.53;;;14.60;99.90;;;;;;4998313;28;20452;-69
2023/05/22 01:24:56;;;;;;;2.80;2.60;;;14.60;99.90;;;;;;4998418;28;20421;-69
2023/05/22 01:27:41;;;;;;;1.80;1.20;;;14.60;99.90;;;;;;5015620;28;20414;-69
2023/05/22 01:30:39;;;;;;;1.43;1.30;;;14.50;99.90;;;;;;5015666;28;20494;-69
2023/05/22 01:33:06;;;;;;;2.13;2.00;;;14.50;99.90;;;;;;5015706;28;20846;-69
2023/05/22 01:35:33;;;;;;;3.00;2.80;;;14.50;99.90;;;;;;5015693;28;20453;-69
2023/05/22 01:38:00;;;;;;;2.63;2.43;;;14.50;99.90;;;;;;5015556;28;20413;-69
2023/05/22 01:40:27;;;;;;;5.23;2.17;;;14.60;99.90;;;;;;5015598;28;20461;-69
2023/05/22 01:42:52;;;;;;;1.27;1.17;;;14.60;99.90;;;;;;5015468;28;20939;-69
2023/05/22 01:45:20;;;;;;;2.97;2.27;;;14.50;99.90;;;;;;5015553;28;20453;-69
2023/05/22 01:47:46;;;;;;;3.97;2.77;;;14.50;99.90;;;;;;5015585;28;20182;-69
2023/05/22 01:50:12;;;;;;;2.33;2.13;;;14.40;99.90;;;;;;5015449;28;20998;-69
2023/05/22 01:52:57;;;;;;;2.47;2.23;;;14.40;99.90;;;;;;5015358;28;20194;-69
2023/05/22 01:55:59;;;;;;;1.10;1.10;;;14.50;99.90;;;;;;5015250;28;20886;-68
2023/05/22 01:58:47;;;;;;;3.23;2.93;;;14.60;99.90;;;;;;5015099;28;20414;-69
2023/05/22 02:01:16;;;;;;;2.70;1.37;;;14.60;99.90;;;;;;4997545;28;20415;-69
2023/05/22 02:03:44;;;;;;;3.37;3.17;;;14.60;99.90;;;;;;5015099;28;20449;-69
2023/05/22 02:06:13;;;;;;;4.10;3.23;;;14.50;99.90;;;;;;5015048;28;20497;-69
2023/05/22 02:08:41;;;;;;;2.93;2.50;;;14.50;99.90;;;;;;5014967;28;20454;-69
2023/05/22 02:11:09;;;;;;;2.40;1.80;;;14.60;99.90;;;;;;5014940;28;20409;-69
2023/05/22 02:13:36;;;;;;;2.07;1.97;;;14.40;99.90;;;;;;5014939;28;20398;-69
2023/05/22 02:16:03;;;;;;;2.77;2.57;;;14.40;99.90;;;;;;5014685;28;20422;-68
2023/05/22 02:18:29;;;;;;;1.90;1.80;;;14.40;99.90;;;;;;5014957;28;20410;-68
2023/05/22 02:20:58;;;;;;;1.40;1.30;;;14.30;99.90;;;;;;5014860;28;20425;-69
2023/05/22 02:23:25;;;;;;;3.23;2.37;;;14.40;99.90;;;;;;5013901;28;20886;-69
2023/05/22 02:25:51;;;;;;;1.90;1.80;;;14.40;99.90;;;;;;4996876;28;20904;-69
2023/05/22 02:28:16;;;;;;;1.50;1.50;;;14.30;99.90;;;;;;5014598;28;20416;-68
2023/05/22 02:30:42;;;;;;;2.23;1.60;;;14.30;99.90;;;;;;5014672;28;20408;-69
2023/05/22 02:33:08;;;;;;;1.73;1.67;;;14.30;99.90;;;;;;5014512;28;20195;-69
2023/05/22 02:35:34;;;;;;;1.50;1.40;;;14.40;99.90;;;;;;5014442;28;20215;-69
2023/05/22 02:38:00;;;;;;;3.20;2.20;;;14.40;99.90;;;;;;5014588;28;20650;-69
2023/05/22 02:40:26;;;;;;;3.17;2.17;;;14.30;99.90;;;;;;5014408;28;20419;-69
2023/05/22 02:42:51;;;;;;;3.00;1.97;;;14.20;99.90;;;;;;5014340;28;20456;-69
2023/05/22 02:45:17;;;;;;;3.80;1.60;;;14.20;99.90;;;;;;5014500;28;20198;-69
2023/05/22 02:47:43;;;;;;;1.80;1.70;;;14.10;99.90;;;;;;5014468;28;20175;-69
2023/05/22 02:50:09;;;;;;;6.30;2.73;;;14.10;99.90;;;;;;5014520;28;20206;-69
2023/05/22 02:52:35;;;;;;;3.23;2.93;;;14.10;99.90;;;;;;5014260;28;20187;-68
2023/05/22 02:55:03;;;;;;;2.77;2.57;;;14.10;99.90;;;;;;5014562;28;20468;-69
2023/05/22 02:57:28;;;;;;;2.00;1.90;;;14.00;99.90;;;;;;5014025;28;20898;-69
2023/05/22 02:59:56;;;;;;;2.33;2.07;;;14.00;99.90;;;;;;5014181;28;20465;-69
2023/05/22 03:02:24;;;;;;;3.20;1.20;;;14.10;99.90;;;;;;5014361;28;20581;-68
2023/05/22 03:04:50;;;;;;;2.27;1.97;;;14.10;99.90;;;;;;4996387;28;20786;-69
2023/05/22 03:07:15;;;;;;;1.10;1.00;;;14.00;99.90;;;;;;5013778;28;20422;-68
2023/05/22 03:09:41;;;;;;;1.57;1.47;;;13.90;99.90;;;;;;5014302;28;20726;-69
2023/05/22 03:12:07;;;;;;;1.33;1.20;;;13.90;99.90;;;;;;5013854;28;20220;-69
2023/05/22 03:14:33;;;;;;;6.17;2.53;;;13.90;99.90;;;;;;5013931;28;20172;-69
2023/05/22 03:16:59;;;;;;;1.67;1.57;;;13.80;99.90;;;;;;4996186;28;20408;-69
2023/05/22 03:19:25;;;;;;;2.60;2.40;;;13.80;99.90;;;;;;5014056;28;20420;-69
2023/05/22 03:21:51;;;;;;;0.93;0.93;;;13.70;99.90;;;;;;5013821;28;20199;-69
2023/05/22 03:24:16;;;;;;;2.73;2.53;;;13.70;99.90;;;;;;5013768;28;20183;-69
2023/05/22 03:26:42;;;;;;;1.40;1.40;;;13.80;99.90;;;;;;5013736;28;20175;-69
2023/05/22 03:29:08;;;;;;;1.70;1.47;;;13.70;99.90;;;;;;5013132;28;20624;-69
2023/05/22 03:31:34;;;;;;;2.13;1.93;;;13.60;99.90;;;;;;5014043;28;20430;-69
2023/05/22 03:34:01;;;;;;;1.40;1.37;;;13.70;99.90;;;;;;5013466;28;20628;-69
2023/05/22 03:36:26;;;;;;;2.30;2.10;;;13.60;99.90;;;;;;5013465;28;20488;-69
2023/05/22 03:38:52;;;;;;;1.47;1.30;;;13.60;99.90;;;;;;5013777;28;20966;-69
2023/05/22 03:41:18;;;;;;;2.17;2.07;;;13.60;99.90;;;;;;5013663;28;20192;-69
2023/05/22 03:43:44;;;;;;;2.80;2.30;;;13.70;99.90;;;;;;5013526;28;20180;-69
2023/05/22 03:46:10;;;;;;;3.07;2.70;;;13.60;99.90;;;;;;5013509;28;20182;-69
2023/05/22 03:48:36;;;;;;;5.40;3.83;;;13.50;99.90;;;;;;5013442;28;20470;-68
2023/05/22 03:51:02;;;;;;;4.57;2.33;;;13.30;99.90;;;;;;5013440;28;20171;-69
2023/05/22 03:53:28;;;;;;;1.87;1.70;;;13.30;99.90;;;;;;5013453;28;20444;-69
2023/05/22 03:55:56;;;;;;;3.60;2.00;;;13.20;99.90;;;;;;5013338;28;20167;-69
2023/05/22 03:58:24;;;;;;;3.60;1.60;;;13.20;99.90;;;;;;5013261;28;20410;-68
2023/05/22 04:00:54;;;;;;;2.53;1.80;;;13.20;99.90;;;;;;5013378;28;20417;-69
2023/05/22 04:03:20;;;;;;;1.40;1.30;;;13.20;99.90;;;;;;5013925;28;20785;-68
2023/05/22 04:05:46;;;;;;;1.10;1.10;;;13.20;99.90;;;;;;5013138;28;20465;-69
2023/05/22 04:08:11;;;;;;;3.80;2.07;;;13.40;99.90;;;;;;5013438;28;20644;-69
2023/05/22 04:10:37;;;;;;;3.87;3.67;;;13.50;99.90;;;;;;5013401;28;20553;-69
2023/05/22 04:13:04;;;;;;;3.50;2.13;;;13.50;99.90;;;;;;5013107;28;20203;-69
2023/05/22 04:15:32;;;;;;;1.30;1.20;;;13.40;99.90;;;;;;4995528;28;20977;-68
2023/05/22 04:17:59;;;;;;;4.37;3.97;;;13.40;99.90;;;;;;5013433;28;20406;-69
2023/05/22 04:20:25;;;;;;;1.53;1.20;;;13.50;99.90;;;;;;5013273;28;20905;-69
2023/05/22 04:22:53;;;;;;;1.47;0.87;;;13.50;99.90;;;;;;5013097;28;20801;-69
2023/05/22 04:25:19;;;;;;;2.00;1.23;;;13.40;99.90;;;;;;5013249;28;20440;-69
2023/05/22 04:27:46;;;;;;;2.53;1.73;;;13.40;99.90;;;;;;5013196;28;20418;-68
2023/05/22 04:30:13;;;;;;;6.20;3.53;;;13.50;99.90;;;;;;5013026;28;20449;-69
2023/05/22 04:32:39;;;;;;;6.20;2.63;;;13.50;99.90;;;;;;5013018;28;20429;-69
2023/05/22 04:35:05;;;;;;;2.50;2.03;;;13.50;99.90;;;;;;4995616;28;20416;-69
2023/05/22 04:37:30;;;;;;;2.17;2.00;;;13.60;99.90;;;;;;5012908;28;20499;-68
2023/05/22 04:40:01;;;;;;;3.60;1.90;;;13.90;99.90;;;;;;5013242;28;20208;-69
2023/05/22 04:42:27;;;;;;;1.60;1.60;;;14.10;99.90;;;;;;4995481;28;20195;-69
2023/05/22 04:44:56;;;;;;;4.77;2.50;;;14.40;99.90;;;;;;5013270;28;20910;-69
2023/05/22 04:47:22;;;;;;;3.70;2.17;;;14.80;99.90;;;;;;5016324;28;20449;-69
2023/05/22 04:49:48;;;;;;;1.97;1.77;;;15.10;99.90;;;;;;5016553;28;20864;-69
2023/05/22 04:52:13;;;;;;;2.73;2.53;;;15.30;99.90;;;;;;5016677;28;20226;-69
2023/05/22 04:54:40;;;;;;;1.87;1.77;;;15.50;99.90;;;;;;5016435;28;20187;-69
2023/05/22 04:57:05;;;;;;;2.40;1.53;;;15.80;99.90;;;;;;5016068;28;20179;-69
2023/05/22 04:59:36;;;;;;;1.00;1.00;;;16.40;99.90;;;;;;5016301;28;20412;-69
2023/05/22 05:02:03;;;;;;;2.23;2.13;;;17.00;99.90;;;;;;5016305;28;20196;-69
2023/05/22 05:04:29;;;;;;;2.07;1.90;;;17.40;99.90;;;;;;5016227;28;20493;-69
2023/05/22 05:06:56;;;;;;;1.60;1.50;;;17.60;99.90;;;;;;5016017;28;20410;-69
2023/05/22 05:09:22;;;;;;;1.83;1.73;;;18.00;99.90;;;;;;5016168;28;20197;-69
2023/05/22 05:11:49;;;;;;;1.77;1.67;;;18.40;97.90;;;;;;5016078;28;20485;-69
2023/05/22 05:14:15;;;;;;;2.27;1.97;;;18.60;97.60;;;;;;5016112;28;20908;-69
2023/05/22 05:16:41;;;;;;;1.93;1.83;;;18.70;97.40;;;;;;5015960;28;20494;-69
2023/05/22 05:19:06;;;;;;;3.27;1.80;;;18.70;97.60;;;;;;5016086;28;20556;-69
2023/05/22 05:21:32;;;;;;;1.60;1.50;;;19.10;97.80;;;;;;5016032;28;20586;-69
2023/05/22 05:23:57;;;;;;;2.20;1.33;;;19.60;97.30;;;;;;5015859;28;20189;-69
2023/05/22 05:26:23;;;;;;;1.10;1.10;;;20.20;96.30;;;;;;5015659;28;20189;-69
2023/05/22 05:28:50;;;;;;;1.03;1.03;;;20.70;94.80;;;;;;5015829;28;20203;-69
2023/05/22 05:31:17;;;;;;;0.80;0.80;;;21.20;99.10;;;;;;5015869;28;20409;-69
2023/05/22 05:33:42;;;;;;;1.40;1.30;;;21.20;92.80;;;;;;5015711;28;20446;-69
2023/05/22 05:36:08;;;;;;;1.27;1.17;;;21.10;93.00;;;;;;5015511;28;20449;-69
2023/05/22 05:38:34;;;;;;;1.03;1.03;;;21.00;92.90;;;;;;5015781;28;20211;-69
2023/05/22 05:41:00;;;;;;;1.77;1.67;;;20.90;92.90;;;;;;5015516;28;20477;-69
2023/05/22 05:43:25;;;;;;;1.80;1.70;;;20.70;92.70;;;;;;5015703;28;20539;-69
2023/05/22 05:45:51;;;;;;;1.40;1.30;;;20.60;93.10;;;;;;5015570;28;20178;-69
2023/05/22 05:48:16;;;;;;;1.00;0.90;;;20.70;93.30;;;;;;5015681;28;20178;-69
2023/05/22 05:50:42;;;;;;;1.17;1.10;;;20.70;93.90;;;;;;5015365;28;20226;-69
2023/05/22 05:53:08;;;;;;;0.90;0.90;;;21.00;93.60;;;;;;5015237;28;20659;-69
2023/05/22 05:55:33;;;;;;;1.63;1.40;;;21.30;92.70;;;;;;5015088;28;20178;-69
2023/05/22 05:57:59;;;;;;;1.67;1.57;;;21.60;92.50;;;;;;5013992;28;20182;-69
2023/05/22 06:00:25;;;;;;;1.60;0.97;;;21.90;92.40;;;;;;5015366;28;20179;-69
2023/05/22 06:02:51;;;;;;;1.17;1.07;;;22.10;92.00;;;;;;5015126;28;20195;-69
2023/05/22 06:05:17;;;;;;;2.00;1.33;;;22.20;92.20;;;;;;5015305;28;20249;-70
2023/05/22 06:07:44;;;;;;;0.80;0.80;;;22.40;91.80;;;;;;5014807;28;20406;-69
2023/05/22 06:10:11;;;;;;;1.03;0.93;;;22.80;92.20;;;;;;5015169;28;20496;-69
2023/05/22 06:12:37;;;;;;;2.03;1.77;;;23.90;90.50;;;;;;5014806;28;20537;-69
2023/05/22 06:15:04;;;;;;;0.73;0.73;;;25.30;87.10;;;;;;5015180;28;20496;-70
2023/05/22 06:17:30;;;;;;;1.30;1.20;;;26.70;82.60;;;;;;5014856;28;20217;-70
2023/05/22 06:19:56;;;;;;;1.23;1.13;;;28.10;77.70;;;;;;5015053;28;20413;-70
2023/05/22 06:22:27;;;;;;;0.80;0.80;;;29.30;71.80;;;;;;5014811;28;20517;-70
2023/05/22 06:24:53;;;;;;;1.00;0.93;;;30.40;68.80;;;;;;5014835;28;20407;-70
2023/05/22 06:27:23;;;;;;;1.37;1.10;;;31.40;64.30;;;;;;5014624;28;20506;-70
2023/05/22 06:29:50;;;;;;;1.00;0.90;;;32.20;57.90;;;;;;5014675;28;20446;-70
2023/05/22 06:32:16;;;;;;;4.10;1.50;;;32.80;57.50;;;;;;5014610;28;20430;-68
2023/05/22 06:34:43;;;;;;;1.03;0.87;;;33.20;54.70;;;;;;5014518;28;20414;-68
2023/05/22 06:37:10;;;;;;;1.40;1.30;;;33.70;54.10;;;;;;5014382;28;20438;-68
2023/05/22 06:39:36;;;;;;;1.10;1.00;;;34.20;52.10;;;;;;5014562;28;20399;-69
2023/05/22 06:42:02;;;;;;;2.37;1.33;;;34.60;51.70;;;;;;5014443;28;20445;-68
2023/05/22 06:44:27;;;;;;;2.90;2.10;;;34.90;49.60;;;;;;5014355;28;20654;-68
2023/05/22 06:46:53;;;;;;;1.20;1.10;;;35.10;48.90;;;;;;5014185;28;20262;-69
2023/05/22 06:49:19;;;;;;;1.83;1.20;;;35.10;48.90;;;;;;5014432;28;20341;-68
2023/05/22 06:51:45;;;;;;;1.00;0.90;;;35.00;47.90;;;;;;5014274;28;20192;-68
2023/05/22 06:54:12;;;;;;;1.20;0.97;;;34.60;47.90;;;;;;5014297;28;20237;-68
2023/05/22 06:56:41;;;;;;;2.00;0.97;;;34.20;48.80;;;;;;5014025;28;20403;-68
2023/05/22 06:59:08;;;;;;;1.90;1.70;;;34.10;50.00;;;;;;5014141;28;20813;-68
2023/05/22 07:01:34;;;;;;;1.30;1.20;;;34.20;49.70;;;;;;5014242;28;20442;-68
2023/05/22 07:04:03;;;;;;;2.00;1.07;;;34.10;48.40;;;;;;5014038;28;20929;-68
2023/05/22 07:06:32;;;;;;;1.27;1.17;;;33.40;49.40;;;;;;5013772;28;20406;-68
2023/05/22 07:08:58;;;;;;;1.80;1.70;;;32.90;51.40;;;;;;5013745;28;20964;-68
2023/05/22 07:11:24;;;;;;;1.70;1.03;;;32.40;51.20;;;;;;5013825;28;20446;-68
2023/05/22 07:13:50;;;;;;;1.10;1.10;;;31.90;52.20;;;;;;5014170;28;20749;-68
2023/05/22 07:16:16;;;;;;;1.40;1.30;;;31.40;51.90;;;;;;5013766;28;20544;-68
2023/05/22 07:18:41;;;;;;;1.30;1.20;;;31.00;53.30;;;;;;5014054;28;20207;-68
2023/05/22 07:21:07;;;;;;;1.17;1.00;;;30.20;60.70;;;;;;5013755;28;20757;-68
2023/05/22 07:23:32;;;;;;;1.60;1.20;;;30.40;54.70;;;;;;4996210;28;20202;-68
2023/05/22 07:25:58;;;;;;;2.30;1.10;;;30.60;54.50;;;;;;5012381;28;20221;-68
2023/05/22 07:28:24;;;;;;;1.17;0.90;;;31.40;54.30;;;;;;5013599;28;20217;-68
2023/05/22 07:30:50;;;;;;;1.60;0.93;;;32.20;51.70;;;;;;5013852;28;20174;-68
2023/05/22 07:33:15;;;;;;;1.20;1.10;;;32.80;51.40;;;;;;5013609;28;20266;-69
2023/05/22 07:35:41;;;;;;;1.50;1.40;;;33.40;49.40;;;;;;4995898;28;20179;-68
2023/05/22 07:38:07;;;;;;;1.93;1.30;;;33.90;49.20;;;;;;5013797;28;20168;-68
2023/05/22 07:40:32;;;;;;;1.53;1.43;;;34.80;48.70;;;;;;5013683;28;20249;-69
2023/05/22 07:42:58;;;;;;;1.10;0.90;;;35.70;47.00;;;;;;5013471;28;20567;-69
2023/05/22 07:45:25;;;;;;;1.47;1.37;;;36.50;46.00;;;;;;4995929;28;20176;-68
2023/05/22 07:47:50;;;;;;;1.30;0.90;;;37.40;46.20;;;;;;5013715;28;20267;-69
2023/05/22 07:50:16;;;;;;;1.60;0.83;;;38.30;45.30;;;;;;5013718;28;20608;-69
2023/05/22 07:52:43;;;;;;;1.37;1.10;;;39.20;43.00;;;;;;5013573;28;20188;-69
2023/05/22 07:55:09;;;;;;;1.77;1.10;;;39.80;39.60;;;;;;5013531;28;20167;-69
2023/05/22 07:57:35;;;;;;;1.77;1.67;;;39.70;39.70;;;;;;5013326;28;20412;-69
2023/05/22 08:00:08;;;;;;;1.37;1.03;;;39.10;38.70;;;;;;5013626;28;20172;-69
2023/05/22 08:02:34;;;;;;;1.50;1.40;;;38.10;39.50;;;;;;5013379;28;20278;-68
2023/05/22 08:05:00;;;;;;;1.90;1.10;;;37.80;39.40;;;;;;5013374;28;20771;-68
2023/05/22 08:07:25;;;;;;;1.13;1.07;;;38.20;39.40;;;;;;5013249;28;20437;-69
2023/05/22 08:09:51;;;;;;;1.43;1.30;;;38.60;38.40;;;;;;4995787;28;20211;-69
2023/05/22 08:12:16;;;;;;;1.10;1.00;;;39.00;38.50;;;;;;5013249;28;20251;-69
2023/05/22 08:14:42;;;;;;;1.40;1.07;;;39.30;37.50;;;;;;5013417;28;20171;-69
2023/05/22 08:17:08;;;;;;;1.57;1.30;;;39.40;36.70;;;;;;5013090;28;20168;-69
2023/05/22 08:19:33;;;;;;;1.77;1.17;;;38.80;35.80;;;;;;5013307;28;20179;-69
2023/05/22 08:21:59;;;;;;;0.93;0.73;;;37.80;37.40;;;;;;5016903;28;20671;-68
2023/05/22 08:24:29;;;;;;;0.80;0.80;;;37.20;40.80;;;;;;5017180;28;20167;-69
2023/05/22 08:26:57;;;;;;;0.90;0.90;;;37.70;39.00;;;;;;5016852;28;20167;-68
2023/05/22 08:29:23;;;;;;;0.90;0.90;;;38.00;37.80;;;;;;5017067;28;20454;-69
2023/05/22 08:31:49;;;;;;;1.17;1.00;;;38.20;38.10;;;;;;5016848;28;20506;-69
2023/05/22 08:34:14;;;;;;;0.80;0.70;;;38.20;37.00;;;;;;4999394;28;20168;-68
2023/05/22 08:36:41;;;;;;;1.80;1.40;;;38.40;37.50;;;;;;5016719;28;20198;-69
2023/05/22 08:39:08;;;;;;;1.33;0.90;;;39.20;36.10;;;;;;5016945;28;20175;-69
2023/05/22 08:41:34;;;;;;;1.00;1.00;;;39.70;34.80;;;;;;5016843;28;20476;-69
2023/05/22 08:44:00;;;;;;;1.00;1.00;;;40.20;34.70;;;;;;5016583;28;20895;-69
2023/05/22 08:46:26;;;;;;;0.70;0.70;;;40.50;34.40;;;;;;5016512;28;20530;-69
2023/05/22 08:48:56;;;;;;;0.90;0.90;;;40.90;35.10;;;;;;5016562;28;20191;-69
2023/05/22 08:51:27;;;;;;;1.50;1.10;;;41.00;32.70;;;;;;5016468;28;20500;-69
2023/05/22 08:53:55;;;;;;;1.20;0.80;;;41.00;33.70;;;;;;5016658;28;20383;-69
2023/05/22 08:56:21;;;;;;;1.00;0.73;;;41.40;34.50;;;;;;5016290;28;20501;-69
2023/05/22 08:58:48;;;;;;;0.90;0.90;;;41.80;34.00;;;;;;5016388;28;20937;-69
2023/05/22 09:01:15;;;;;;;0.80;0.80;;;40.60;35.60;;;;;;5016351;28;20172;-68
2023/05/22 09:03:41;;;;;;;1.00;0.90;;;40.20;32.30;;;;;;5016286;28;20414;-68
2023/05/22 09:06:09;;;;;;;2.53;1.10;;;38.40;34.70;;;;;;5016062;28;20797;-69
2023/05/22 09:08:35;;;;;;;0.93;0.93;;;37.20;35.70;;;;;;5016387;28;20167;-68
2023/05/22 09:11:01;;;;;;;0.80;0.63;;;36.80;37.00;;;;;;5016591;28;20402;-69
2023/05/22 09:13:29;;;;;;;2.30;1.07;;;36.40;36.10;;;;;;5016253;28;20410;-68
2023/05/22 09:15:59;;;;;;;1.00;0.90;;;35.10;38.40;;;;;;5016039;28;20160;-68
2023/05/22 09:18:31;;;;;;;1.43;1.33;;;33.50;39.50;;;;;;5016145;28;20405;-68
2023/05/22 09:20:57;;;;;;;1.47;1.37;;;31.70;42.00;;;;;;5015942;28;20410;-68
2023/05/22 09:23:26;;;;;;;1.20;1.10;;;30.10;44.80;;;;;;5015915;28;20893;-68
2023/05/22 09:25:57;;;;;;;1.70;1.10;;;29.00;47.60;;;;;;5015764;28;20395;-68
2023/05/22 09:28:23;;;;;;;1.00;0.90;;;28.50;49.80;;;;;;5015860;28;20402;-68
2023/05/22 09:30:51;;;;;;;0.93;0.87;;;28.10;49.70;;;;;;5015545;28;20461;-68
2023/05/22 09:33:17;;;;;;;0.60;0.60;;;27.50;51.60;;;;;;5015741;28;20423;-68
2023/05/22 09:35:45;;;;;;;0.97;0.87;;;27.40;54.00;;;;;;5015628;28;20402;-68
2023/05/22 09:38:12;;;;;;;1.27;1.20;;;26.70;51.50;;;;;;5015857;28;20891;-67
2023/05/22 09:40:39;;;;;;;0.87;0.87;;;25.90;52.80;;;;;;5015669;28;20385;-67
2023/05/22 09:43:09;;;;;;;0.90;0.90;;;25.60;53.70;;;;;;5015616;28;20429;-68
2023/05/22 09:45:35;;;;;;;0.83;0.80;;;25.40;53.80;;;;;;5015666;28;20413;-68
2023/05/22 09:48:05;;;;;;;1.20;1.10;;;25.80;53.90;;;;;;5015734;28;20433;-68
2023/05/22 09:50:34;;;;;;;0.80;0.80;;;26.70;52.00;;;;;;5015407;28;20486;-68
2023/05/22 09:53:02;;;;;;;1.80;1.67;;;27.00;50.30;;;;;;5015272;28;20438;-68
2023/05/22 09:55:28;;;;;;;1.23;1.13;;;27.00;51.20;;;;;;4997665;28;20747;-68
2023/05/22 09:57:55;;;;;;;0.90;0.90;;;27.10;51.50;;;;;;5015258;28;20472;-68
2023/05/22 10:00:22;;;;;;;1.33;1.23;;;27.00;52.70;;;;;;5015383;28;20407;-68
2023/05/22 10:03:02;;;;;;;1.70;1.30;;;26.80;52.50;;;;;;5015088;28;20426;-68
2023/05/22 10:05:32;;;;;;;1.83;1.53;;;27.00;51.80;;;;;;4997427;28;20403;-68
2023/05/22 10:08:13;;;;;;;1.23;1.13;;;27.20;51.60;;;;;;5015225;28;20785;-68
2023/05/22 10:10:41;;;;;;;1.30;1.20;;;27.30;52.20;;;;;;5015074;28;20508;-68
2023/05/22 10:13:07;;;;;;;0.80;0.80;;;27.30;52.50;;;;;;5014910;28;20901;-68
2023/05/22 10:15:34;;;;;;;1.20;1.10;;;27.10;54.20;;;;;;5014931;28;20438;-68
2023/05/22 10:18:01;;;;;;;2.60;1.60;;;26.90;54.70;;;;;;5014943;28;20955;-68
2023/05/22 10:20:28;;;;;;;1.10;1.00;;;26.60;54.40;;;;;;5014895;28;20382;-68
2023/05/22 10:22:55;;;;;;;0.83;0.83;;;26.40;55.30;;;;;;5014988;28;20408;-68
2023/05/22 10:25:21;;;;;;;1.00;0.90;;;26.20;55.50;;;;;;5014745;28;20763;-68
2023/05/22 10:27:50;;;;;;;1.13;1.03;;;25.90;57.00;;;;;;5014891;28;20484;-68
2023/05/22 10:30:28;;;;;;;1.10;1.00;;;25.70;58.10;;;;;;5014786;28;20446;-67
2023/05/22 10:33:08;;;;;;;1.67;1.23;;;25.60;57.10;;;;;;4997325;28;20441;-68
2023/05/22 10:35:56;;;;;;;1.20;1.10;;;25.70;56.60;;;;;;5014494;28;20398;-70
2023/05/22 10:38:46;;;;;;;1.17;1.07;;;26.10;57.10;;;;;;4997167;28;20946;-70
2023/05/22 10:41:13;;;;;;;1.07;1.07;;;26.90;62.20;;;;;;5014474;28;20407;-70
2023/05/22 10:43:41;;;;;;;0.90;0.90;;;27.20;54.10;;;;;;5014019;28;20458;-70
2023/05/22 10:46:08;;;;;;;1.57;1.30;;;27.50;51.90;;;;;;5014437;28;20409;-70
2023/05/22 10:48:44;;;;;;;0.90;0.90;;;27.50;52.90;;;;;;5014289;28;20373;-70
2023/05/22 10:51:16;;;;;;;0.90;0.90;;;27.70;64.20;;;;;;5014736;28;20411;-70
2023/05/22 10:53:43;;;;;;;1.03;0.80;;;27.70;55.20;;;;;;5014382;28;20405;-70
2023/05/22 10:56:13;;;;;;;0.90;0.90;;;27.80;51.50;;;;;;5014078;28;20493;-70
2023/05/22 10:58:41;;;;;;;2.63;1.07;;;27.80;51.90;;;;;;5014363;28;20399;-70
2023/05/22 11:01:12;;;;;;;1.20;1.10;;;27.90;50.80;;;;;;5014284;28;20433;-70
2023/05/22 11:03:49;;;;;;;1.07;0.77;;;28.00;52.00;;;;;;5014136;28;20413;-70
2023/05/22 11:06:44;;;;;;;1.63;1.03;;;28.20;50.10;;;;;;5014070;28;20408;-70
2023/05/22 11:09:32;;;;;;;0.87;0.87;;;28.40;51.30;;;;;;5014121;28;20785;-70
2023/05/22 11:12:22;;;;;;;1.33;1.23;;;28.50;50.30;;;;;;5014000;28;20577;-70
2023/05/22 11:14:55;;;;;;;1.23;1.13;;;28.70;50.80;;;;;;5014083;28;20529;-70
2023/05/22 11:17:26;;;;;;;1.67;1.20;;;28.60;49.00;;;;;;5013964;28;20407;-70
2023/05/22 11:20:05;;;;;;;2.07;1.30;;;28.40;48.10;;;;;;5014104;28;20484;-70
2023/05/22 11:22:41;;;;;;;1.10;1.00;;;28.10;50.40;;;;;;5013762;28;20466;-70
2023/05/22 11:25:09;;;;;;;1.10;1.10;;;27.50;49.10;;;;;;5013869;28;20406;-70
2023/05/22 11:27:36;;;;;;;0.90;0.90;;;27.00;50.60;;;;;;5013665;28;20410;-70
2023/05/22 11:30:02;;;;;;;0.90;0.90;;;26.60;51.60;;;;;;4996287;28;20806;-69
2023/05/22 11:32:28;;;;;;;0.70;0.70;;;26.00;49.00;;;;;;5013881;28;20926;-70
2023/05/22 11:34:56;;;;;;;7.03;1.00;;;25.40;49.80;;;;;;5013737;28;20523;-70
2023/05/22 11:37:21;;;;;;;1.40;1.30;;;24.80;51.50;;;;;;5013534;28;20171;-70
2023/05/22 11:39:59;;;;;;;2.37;0.93;;;24.20;51.90;;;;;;5013690;28;20399;-70
2023/05/22 11:42:25;;;;;;;0.80;0.80;;;23.90;52.30;;;;;;5013574;28;20411;-70
2023/05/22 11:44:51;;;;;;;1.20;1.10;;;23.60;52.00;;;;;;4996165;28;20393;-70
2023/05/22 11:47:17;;;;;;;1.53;1.27;;;23.40;52.80;;;;;;5013333;28;20175;-69
2023/05/22 11:49:43;;;;;;;1.00;1.00;;;23.30;53.60;;;;;;5013437;28;20199;-70
2023/05/22 11:52:09;;;;;;;0.90;0.90;;;23.20;53.20;;;;;;5013443;28;20445;-69
2023/05/22 11:54:35;;;;;;;0.80;0.80;;;23.00;54.70;;;;;;5015071;28;20402;-69
2023/05/22 11:57:08;;;;;;;2.30;2.10;;;23.10;56.50;;;;;;5017554;28;20403;-69
2023/05/22 11:59:33;;;;;;;0.80;0.80;;;23.10;56.60;;;;;;5017679;28;20403;-69
2023/05/22 12:01:59;;;;;;;0.70;0.70;;;23.30;58.30;;;;;;5017594;28;20809;-70
2023/05/22 12:04:25;;;;;;;1.23;0.97;;;23.40;57.10;;;;;;5017480;28;20172;-70
2023/05/22 12:06:52;;;;;;;1.57;1.10;;;23.20;57.50;;;;;;5017305;28;20179;-70
2023/05/22 12:09:18;;;;;;;1.00;1.00;;;23.30;58.00;;;;;;5017364;28;20295;-69
2023/05/22 12:11:47;;;;;;;0.90;0.87;;;23.50;57.80;;;;;;5017214;28;20520;-70
2023/05/22 12:14:13;;;;;;;1.47;1.37;;;23.80;57.60;;;;;;5017375;28;20409;-70
2023/05/22 12:16:38;;;;;;;1.73;1.10;;;24.00;58.30;;;;;;5017177;28;20442;-70
2023/05/22 12:19:08;;;;;;;0.90;0.63;;;24.00;58.70;;;;;;5017249;28;20670;-69
2023/05/22 12:21:35;;;;;;;1.17;0.67;;;24.10;58.40;;;;;;5017146;28;20195;-70
2023/05/22 12:24:04;;;;;;;0.83;0.80;;;24.00;58.20;;;;;;5017146;28;20445;-69
2023/05/22 12:26:31;;;;;;;0.67;0.67;;;23.90;58.10;;;;;;5016909;28;20411;-69
2023/05/22 12:28:57;;;;;;;2.20;1.00;;;23.80;58.60;;;;;;5017009;28;20454;-70
2023/05/22 12:31:23;;;;;;;1.00;0.90;;;24.00;60.10;;;;;;4999311;28;20401;-70
2023/05/22 12:33:56;;;;;;;1.53;1.43;;;24.00;59.20;;;;;;5016901;28;20385;-70
2023/05/22 12:36:32;;;;;;;1.10;1.00;;;24.10;59.60;;;;;;5016723;28;20410;-70
2023/05/22 12:38:58;;;;;;;2.00;1.30;;;24.10;61.80;;;;;;5016916;28;20405;-69
2023/05/22 12:41:24;;;;;;;2.40;1.60;;;23.80;61.90;;;;;;5016826;28;20465;-69
2023/05/22 12:43:49;;;;;;;0.83;0.80;;;23.50;62.30;;;;;;5016732;28;20587;-70
2023/05/22 12:46:15;;;;;;;1.17;1.17;;;23.40;63.40;;;;;;5016701;28;20178;-70
2023/05/22 12:48:40;;;;;;;0.80;0.60;;;23.50;62.50;;;;;;4999008;28;20206;-70
2023/05/22 12:51:08;;;;;;;1.20;1.10;;;23.60;64.10;;;;;;5016624;28;20211;-69